sensor_id;sensor_type;location;lat;lon;timestamp;P1;durP1;ratioP1;P2;durP2;ratioP2
55633;SDS011;41504;53.162;6.788;2024-01-30T00:00:38;19.45;;;14.88;;
55633;SDS011;41504;53.162;6.788;2024-01-30T00:03:04;20.35;;;15.40;;
55633;SDS011;41504;53.162;6.788;2024-01-30T00:05:33;20.15;;;15.30;;
55633;SDS011;41504;53.162;6.788;2024-01-30T00:07:59;18.17;;;14.63;;
55633;SDS011;41504;53.162;6.788;2024-01-30T00:10:25;20.55;;;15.75;;
55633;SDS011;41504;53.162;6.788;2024-01-30T00:12:51;22.95;;;17.17;;
55633;SDS011;41504;53.162;6.788;2024-01-30T00:15:20;22.27;;;16.52;;
55633;SDS011;41504;53.162;6.788;2024-01-30T00:17:46;20.13;;;16.92;;
55633;SDS011;41504;53.162;6.788;2024-01-30T00:20:12;22.42;;;16.35;;
55633;SDS011;41504;53.162;6.788;2024-01-30T00:22:38;25.75;;;16.08;;
55633;SDS011;41504;53.162;6.788;2024-01-30T00:25:03;19.98;;;16.00;;
55633;SDS011;41504;53.162;6.788;2024-01-30T00:27:29;21.95;;;15.93;;
55633;SDS011;41504;53.162;6.788;2024-01-30T00:29:55;20.95;;;16.13;;
55633;SDS011;41504;53.162;6.788;2024-01-30T00:32:21;20.83;;;16.20;;
55633;SDS011;41504;53.162;6.788;2024-01-30T00:34:48;21.13;;;16.13;;
55633;SDS011;41504;53.162;6.788;2024-01-30T00:37:14;21.80;;;16.15;;
55633;SDS011;41504;53.162;6.788;2024-01-30T00:39:40;22.25;;;16.50;;
55633;SDS011;41504;53.162;6.788;2024-01-30T00:42:05;20.35;;;15.85;;
55633;SDS011;41504;53.162;6.788;2024-01-30T00:44:31;21.30;;;15.18;;
55633;SDS011;41504;53.162;6.788;2024-01-30T00:47:02;20.08;;;16.20;;
55633;SDS011;41504;53.162;6.788;2024-01-30T00:49:28;21.17;;;15.82;;
55633;SDS011;41504;53.162;6.788;2024-01-30T00:51:54;21.27;;;15.50;;
55633;SDS011;41504;53.162;6.788;2024-01-30T00:54:22;21.30;;;16.83;;
55633;SDS011;41504;53.162;6.788;2024-01-30T00:56:50;20.92;;;15.85;;
55633;SDS011;41504;53.162;6.788;2024-01-30T00:59:15;20.33;;;16.17;;
55633;SDS011;41504;53.162;6.788;2024-01-30T01:01:41;23.17;;;16.33;;
55633;SDS011;41504;53.162;6.788;2024-01-30T01:04:07;21.75;;;15.50;;
55633;SDS011;41504;53.162;6.788;2024-01-30T01:06:32;19.75;;;16.02;;
55633;SDS011;41504;53.162;6.788;2024-01-30T01:08:58;19.92;;;15.32;;
55633;SDS011;41504;53.162;6.788;2024-01-30T01:11:25;22.90;;;15.65;;
55633;SDS011;41504;53.162;6.788;2024-01-30T01:13:51;20.75;;;15.23;;
55633;SDS011;41504;53.162;6.788;2024-01-30T01:16:17;20.08;;;15.52;;
55633;SDS011;41504;53.162;6.788;2024-01-30T01:18:43;20.77;;;15.95;;
55633;SDS011;41504;53.162;6.788;2024-01-30T01:21:09;19.85;;;15.57;;
55633;SDS011;41504;53.162;6.788;2024-01-30T01:23:34;21.35;;;15.60;;
55633;SDS011;41504;53.162;6.788;2024-01-30T01:26:05;20.75;;;16.55;;
55633;SDS011;41504;53.162;6.788;2024-01-30T01:28:34;20.77;;;15.85;;
55633;SDS011;41504;53.162;6.788;2024-01-30T01:31:00;21.08;;;16.08;;
55633;SDS011;41504;53.162;6.788;2024-01-30T01:33:33;21.67;;;16.45;;
55633;SDS011;41504;53.162;6.788;2024-01-30T01:35:59;21.25;;;17.00;;
55633;SDS011;41504;53.162;6.788;2024-01-30T01:38:28;20.55;;;16.90;;
55633;SDS011;41504;53.162;6.788;2024-01-30T01:40:57;21.15;;;17.40;;
55633;SDS011;41504;53.162;6.788;2024-01-30T01:43:23;21.52;;;17.23;;
55633;SDS011;41504;53.162;6.788;2024-01-30T01:45:50;22.67;;;16.23;;
55633;SDS011;41504;53.162;6.788;2024-01-30T01:48:15;23.23;;;16.88;;
55633;SDS011;41504;53.162;6.788;2024-01-30T01:50:42;21.52;;;15.95;;
55633;SDS011;41504;53.162;6.788;2024-01-30T01:53:08;21.50;;;16.40;;
55633;SDS011;41504;53.162;6.788;2024-01-30T01:55:34;20.75;;;15.93;;
55633;SDS011;41504;53.162;6.788;2024-01-30T01:58:01;21.98;;;16.15;;
55633;SDS011;41504;53.162;6.788;2024-01-30T02:00:27;20.73;;;16.45;;
55633;SDS011;41504;53.162;6.788;2024-01-30T02:02:54;23.10;;;15.63;;
55633;SDS011;41504;53.162;6.788;2024-01-30T02:05:21;20.38;;;15.88;;
55633;SDS011;41504;53.162;6.788;2024-01-30T02:07:47;23.10;;;15.95;;
55633;SDS011;41504;53.162;6.788;2024-01-30T02:10:13;21.08;;;16.08;;
55633;SDS011;41504;53.162;6.788;2024-01-30T02:12:39;21.85;;;15.82;;
55633;SDS011;41504;53.162;6.788;2024-01-30T02:15:05;19.35;;;15.52;;
55633;SDS011;41504;53.162;6.788;2024-01-30T02:17:32;20.95;;;16.05;;
55633;SDS011;41504;53.162;6.788;2024-01-30T02:19:59;22.45;;;16.92;;
55633;SDS011;41504;53.162;6.788;2024-01-30T02:22:25;21.17;;;15.38;;
55633;SDS011;41504;53.162;6.788;2024-01-30T02:24:50;20.73;;;15.23;;
55633;SDS011;41504;53.162;6.788;2024-01-30T02:27:16;20.52;;;14.75;;
55633;SDS011;41504;53.162;6.788;2024-01-30T02:29:42;19.58;;;14.85;;
55633;SDS011;41504;53.162;6.788;2024-01-30T02:32:08;18.70;;;14.07;;
55633;SDS011;41504;53.162;6.788;2024-01-30T02:34:33;20.38;;;15.70;;
55633;SDS011;41504;53.162;6.788;2024-01-30T02:36:59;21.35;;;15.40;;
55633;SDS011;41504;53.162;6.788;2024-01-30T02:39:25;21.13;;;15.52;;
55633;SDS011;41504;53.162;6.788;2024-01-30T02:41:51;21.65;;;15.48;;
55633;SDS011;41504;53.162;6.788;2024-01-30T02:44:16;21.80;;;15.05;;
55633;SDS011;41504;53.162;6.788;2024-01-30T02:46:42;21.90;;;15.90;;
55633;SDS011;41504;53.162;6.788;2024-01-30T02:49:08;21.20;;;15.77;;
55633;SDS011;41504;53.162;6.788;2024-01-30T02:51:34;20.65;;;14.73;;
55633;SDS011;41504;53.162;6.788;2024-01-30T02:54:00;21.00;;;15.43;;
55633;SDS011;41504;53.162;6.788;2024-01-30T02:56:25;22.23;;;15.48;;
55633;SDS011;41504;53.162;6.788;2024-01-30T02:58:51;20.33;;;15.77;;
55633;SDS011;41504;53.162;6.788;2024-01-30T03:01:17;20.33;;;15.05;;
55633;SDS011;41504;53.162;6.788;2024-01-30T03:03:46;21.88;;;15.60;;
55633;SDS011;41504;53.162;6.788;2024-01-30T03:06:11;21.48;;;15.65;;
55633;SDS011;41504;53.162;6.788;2024-01-30T03:08:37;19.40;;;15.00;;
55633;SDS011;41504;53.162;6.788;2024-01-30T03:11:04;19.00;;;15.23;;
55633;SDS011;41504;53.162;6.788;2024-01-30T03:13:30;19.63;;;15.55;;
55633;SDS011;41504;53.162;6.788;2024-01-30T03:15:56;19.73;;;14.27;;
55633;SDS011;41504;53.162;6.788;2024-01-30T03:18:22;21.15;;;15.55;;
55633;SDS011;41504;53.162;6.788;2024-01-30T03:20:48;21.98;;;15.65;;
55633;SDS011;41504;53.162;6.788;2024-01-30T03:23:16;21.33;;;15.35;;
55633;SDS011;41504;53.162;6.788;2024-01-30T03:25:42;20.05;;;15.07;;
55633;SDS011;41504;53.162;6.788;2024-01-30T03:28:08;19.15;;;14.70;;
55633;SDS011;41504;53.162;6.788;2024-01-30T03:30:34;19.15;;;14.73;;
55633;SDS011;41504;53.162;6.788;2024-01-30T03:33:00;17.85;;;14.00;;
55633;SDS011;41504;53.162;6.788;2024-01-30T03:35:25;22.30;;;14.45;;
55633;SDS011;41504;53.162;6.788;2024-01-30T03:37:51;18.77;;;13.90;;
55633;SDS011;41504;53.162;6.788;2024-01-30T03:40:19;20.85;;;15.52;;
55633;SDS011;41504;53.162;6.788;2024-01-30T03:42:45;21.30;;;15.50;;
55633;SDS011;41504;53.162;6.788;2024-01-30T03:45:10;20.50;;;15.23;;
55633;SDS011;41504;53.162;6.788;2024-01-30T03:47:36;18.52;;;14.00;;
55633;SDS011;41504;53.162;6.788;2024-01-30T03:50:02;19.15;;;14.55;;
55633;SDS011;41504;53.162;6.788;2024-01-30T03:52:30;18.75;;;14.35;;
55633;SDS011;41504;53.162;6.788;2024-01-30T03:54:55;19.55;;;15.15;;
55633;SDS011;41504;53.162;6.788;2024-01-30T03:57:21;18.20;;;14.05;;
55633;SDS011;41504;53.162;6.788;2024-01-30T03:59:47;18.83;;;12.95;;
55633;SDS011;41504;53.162;6.788;2024-01-30T04:02:12;19.90;;;15.30;;
55633;SDS011;41504;53.162;6.788;2024-01-30T04:04:38;18.58;;;14.45;;
55633;SDS011;41504;53.162;6.788;2024-01-30T04:07:04;19.67;;;14.68;;
55633;SDS011;41504;53.162;6.788;2024-01-30T04:09:30;17.60;;;14.20;;
55633;SDS011;41504;53.162;6.788;2024-01-30T04:11:57;19.40;;;14.23;;
55633;SDS011;41504;53.162;6.788;2024-01-30T04:14:23;21.70;;;14.27;;
55633;SDS011;41504;53.162;6.788;2024-01-30T04:16:52;20.73;;;15.52;;
55633;SDS011;41504;53.162;6.788;2024-01-30T04:19:18;19.23;;;14.77;;
55633;SDS011;41504;53.162;6.788;2024-01-30T04:21:43;17.90;;;14.18;;
55633;SDS011;41504;53.162;6.788;2024-01-30T04:24:09;18.83;;;14.48;;
55633;SDS011;41504;53.162;6.788;2024-01-30T04:26:35;19.77;;;14.93;;
55633;SDS011;41504;53.162;6.788;2024-01-30T04:29:01;18.92;;;14.20;;
55633;SDS011;41504;53.162;6.788;2024-01-30T04:31:27;18.40;;;14.10;;
55633;SDS011;41504;53.162;6.788;2024-01-30T04:33:53;18.20;;;13.95;;
55633;SDS011;41504;53.162;6.788;2024-01-30T04:36:21;23.52;;;13.85;;
55633;SDS011;41504;53.162;6.788;2024-01-30T04:38:47;18.63;;;14.25;;
55633;SDS011;41504;53.162;6.788;2024-01-30T04:41:13;18.17;;;14.05;;
55633;SDS011;41504;53.162;6.788;2024-01-30T04:43:38;19.55;;;14.18;;
55633;SDS011;41504;53.162;6.788;2024-01-30T04:46:04;17.65;;;13.25;;
55633;SDS011;41504;53.162;6.788;2024-01-30T04:48:30;21.25;;;14.48;;
55633;SDS011;41504;53.162;6.788;2024-01-30T04:50:56;21.35;;;15.50;;
55633;SDS011;41504;53.162;6.788;2024-01-30T04:53:22;20.73;;;14.70;;
55633;SDS011;41504;53.162;6.788;2024-01-30T04:55:48;18.83;;;13.68;;
55633;SDS011;41504;53.162;6.788;2024-01-30T04:58:13;17.63;;;13.27;;
55633;SDS011;41504;53.162;6.788;2024-01-30T05:00:39;17.70;;;12.98;;
55633;SDS011;41504;53.162;6.788;2024-01-30T05:03:05;17.92;;;14.15;;
55633;SDS011;41504;53.162;6.788;2024-01-30T05:05:31;19.88;;;14.52;;
55633;SDS011;41504;53.162;6.788;2024-01-30T05:07:56;19.63;;;14.20;;
55633;SDS011;41504;53.162;6.788;2024-01-30T05:10:25;18.10;;;14.15;;
55633;SDS011;41504;53.162;6.788;2024-01-30T05:12:51;18.27;;;13.80;;
55633;SDS011;41504;53.162;6.788;2024-01-30T05:15:16;18.38;;;13.30;;
55633;SDS011;41504;53.162;6.788;2024-01-30T05:17:42;18.15;;;12.82;;
55633;SDS011;41504;53.162;6.788;2024-01-30T05:20:08;16.77;;;12.70;;
55633;SDS011;41504;53.162;6.788;2024-01-30T05:22:35;17.75;;;12.35;;
55633;SDS011;41504;53.162;6.788;2024-01-30T05:25:09;16.60;;;12.80;;
55633;SDS011;41504;53.162;6.788;2024-01-30T05:27:36;17.70;;;13.73;;
55633;SDS011;41504;53.162;6.788;2024-01-30T05:30:01;18.73;;;14.15;;
55633;SDS011;41504;53.162;6.788;2024-01-30T05:32:27;16.65;;;13.38;;
55633;SDS011;41504;53.162;6.788;2024-01-30T05:34:53;17.90;;;12.98;;
55633;SDS011;41504;53.162;6.788;2024-01-30T05:37:18;19.60;;;12.98;;
55633;SDS011;41504;53.162;6.788;2024-01-30T05:39:44;17.42;;;13.43;;
55633;SDS011;41504;53.162;6.788;2024-01-30T05:42:10;18.65;;;13.98;;
55633;SDS011;41504;53.162;6.788;2024-01-30T05:44:38;18.70;;;12.93;;
55633;SDS011;41504;53.162;6.788;2024-01-30T05:47:04;15.95;;;12.52;;
55633;SDS011;41504;53.162;6.788;2024-01-30T05:49:29;18.08;;;13.20;;
55633;SDS011;41504;53.162;6.788;2024-01-30T05:51:55;17.88;;;13.77;;
55633;SDS011;41504;53.162;6.788;2024-01-30T05:54:21;19.40;;;13.32;;
55633;SDS011;41504;53.162;6.788;2024-01-30T05:56:47;16.65;;;13.65;;
55633;SDS011;41504;53.162;6.788;2024-01-30T05:59:12;17.60;;;13.82;;
55633;SDS011;41504;53.162;6.788;2024-01-30T06:01:46;17.33;;;13.02;;
55633;SDS011;41504;53.162;6.788;2024-01-30T06:04:13;19.08;;;13.57;;
55633;SDS011;41504;53.162;6.788;2024-01-30T06:06:38;17.83;;;13.68;;
55633;SDS011;41504;53.162;6.788;2024-01-30T06:09:04;19.05;;;14.30;;
55633;SDS011;41504;53.162;6.788;2024-01-30T06:11:30;16.45;;;13.52;;
55633;SDS011;41504;53.162;6.788;2024-01-30T06:13:56;17.55;;;13.93;;
55633;SDS011;41504;53.162;6.788;2024-01-30T06:16:22;18.95;;;14.18;;
55633;SDS011;41504;53.162;6.788;2024-01-30T06:18:48;18.75;;;13.50;;
55633;SDS011;41504;53.162;6.788;2024-01-30T06:21:13;17.05;;;13.15;;
55633;SDS011;41504;53.162;6.788;2024-01-30T06:23:39;19.00;;;12.88;;
55633;SDS011;41504;53.162;6.788;2024-01-30T06:26:06;18.52;;;13.50;;
55633;SDS011;41504;53.162;6.788;2024-01-30T06:28:32;16.20;;;12.30;;
55633;SDS011;41504;53.162;6.788;2024-01-30T06:30:58;18.95;;;13.73;;
55633;SDS011;41504;53.162;6.788;2024-01-30T06:33:25;17.10;;;13.50;;
55633;SDS011;41504;53.162;6.788;2024-01-30T06:35:51;20.23;;;13.35;;
55633;SDS011;41504;53.162;6.788;2024-01-30T06:38:17;20.05;;;12.95;;
55633;SDS011;41504;53.162;6.788;2024-01-30T06:40:42;17.45;;;12.73;;
55633;SDS011;41504;53.162;6.788;2024-01-30T06:43:08;19.70;;;13.32;;
55633;SDS011;41504;53.162;6.788;2024-01-30T06:45:34;18.00;;;12.63;;
55633;SDS011;41504;53.162;6.788;2024-01-30T06:48:00;17.83;;;12.93;;
55633;SDS011;41504;53.162;6.788;2024-01-30T06:50:26;18.75;;;13.75;;
55633;SDS011;41504;53.162;6.788;2024-01-30T06:52:52;16.40;;;12.10;;
55633;SDS011;41504;53.162;6.788;2024-01-30T06:55:18;15.98;;;13.13;;
55633;SDS011;41504;53.162;6.788;2024-01-30T06:57:43;17.73;;;12.88;;
55633;SDS011;41504;53.162;6.788;2024-01-30T07:00:09;17.85;;;13.30;;
55633;SDS011;41504;53.162;6.788;2024-01-30T07:02:35;15.98;;;12.38;;
55633;SDS011;41504;53.162;6.788;2024-01-30T07:05:01;15.63;;;12.23;;
55633;SDS011;41504;53.162;6.788;2024-01-30T07:07:28;18.27;;;12.82;;
55633;SDS011;41504;53.162;6.788;2024-01-30T07:09:54;16.48;;;12.30;;
55633;SDS011;41504;53.162;6.788;2024-01-30T07:12:23;16.88;;;12.65;;
55633;SDS011;41504;53.162;6.788;2024-01-30T07:14:50;15.50;;;13.10;;
55633;SDS011;41504;53.162;6.788;2024-01-30T07:17:16;17.38;;;12.40;;
55633;SDS011;41504;53.162;6.788;2024-01-30T07:19:42;18.38;;;12.35;;
55633;SDS011;41504;53.162;6.788;2024-01-30T07:22:08;17.33;;;12.77;;
55633;SDS011;41504;53.162;6.788;2024-01-30T07:24:34;19.42;;;13.25;;
55633;SDS011;41504;53.162;6.788;2024-01-30T07:27:00;19.33;;;12.82;;
55633;SDS011;41504;53.162;6.788;2024-01-30T07:29:25;17.98;;;12.27;;
55633;SDS011;41504;53.162;6.788;2024-01-30T07:31:51;16.80;;;13.18;;
55633;SDS011;41504;53.162;6.788;2024-01-30T07:34:17;16.13;;;11.98;;
55633;SDS011;41504;53.162;6.788;2024-01-30T07:36:43;18.95;;;13.02;;
55633;SDS011;41504;53.162;6.788;2024-01-30T07:39:12;18.35;;;12.10;;
55633;SDS011;41504;53.162;6.788;2024-01-30T07:41:37;18.80;;;13.25;;
55633;SDS011;41504;53.162;6.788;2024-01-30T07:44:03;18.38;;;13.05;;
55633;SDS011;41504;53.162;6.788;2024-01-30T07:46:29;16.35;;;12.88;;
55633;SDS011;41504;53.162;6.788;2024-01-30T07:48:55;16.55;;;12.90;;
55633;SDS011;41504;53.162;6.788;2024-01-30T07:51:22;18.98;;;13.50;;
55633;SDS011;41504;53.162;6.788;2024-01-30T07:53:53;17.85;;;12.95;;
55633;SDS011;41504;53.162;6.788;2024-01-30T07:56:22;18.42;;;12.82;;
55633;SDS011;41504;53.162;6.788;2024-01-30T07:58:48;19.13;;;13.32;;
55633;SDS011;41504;53.162;6.788;2024-01-30T08:01:14;16.88;;;12.45;;
55633;SDS011;41504;53.162;6.788;2024-01-30T08:03:40;18.98;;;12.65;;
55633;SDS011;41504;53.162;6.788;2024-01-30T08:06:09;17.70;;;12.98;;
55633;SDS011;41504;53.162;6.788;2024-01-30T08:08:35;18.55;;;13.20;;
55633;SDS011;41504;53.162;6.788;2024-01-30T08:11:03;21.70;;;13.52;;
55633;SDS011;41504;53.162;6.788;2024-01-30T08:13:32;18.15;;;13.30;;
55633;SDS011;41504;53.162;6.788;2024-01-30T08:15:58;17.50;;;12.82;;
55633;SDS011;41504;53.162;6.788;2024-01-30T08:18:27;19.20;;;13.13;;
55633;SDS011;41504;53.162;6.788;2024-01-30T08:20:52;16.55;;;12.40;;
55633;SDS011;41504;53.162;6.788;2024-01-30T08:23:18;18.30;;;13.48;;
55633;SDS011;41504;53.162;6.788;2024-01-30T08:25:44;15.85;;;11.88;;
55633;SDS011;41504;53.162;6.788;2024-01-30T08:28:10;17.35;;;12.75;;
55633;SDS011;41504;53.162;6.788;2024-01-30T08:30:35;17.25;;;12.73;;
55633;SDS011;41504;53.162;6.788;2024-01-30T08:33:01;16.50;;;12.23;;
55633;SDS011;41504;53.162;6.788;2024-01-30T08:35:27;17.00;;;12.90;;
55633;SDS011;41504;53.162;6.788;2024-01-30T08:37:52;17.67;;;13.13;;
55633;SDS011;41504;53.162;6.788;2024-01-30T08:40:20;20.40;;;12.77;;
55633;SDS011;41504;53.162;6.788;2024-01-30T08:42:45;18.27;;;13.13;;
55633;SDS011;41504;53.162;6.788;2024-01-30T08:45:11;18.40;;;13.50;;
55633;SDS011;41504;53.162;6.788;2024-01-30T08:47:37;19.83;;;13.52;;
55633;SDS011;41504;53.162;6.788;2024-01-30T08:50:03;17.85;;;11.95;;
55633;SDS011;41504;53.162;6.788;2024-01-30T08:52:29;17.95;;;12.90;;
55633;SDS011;41504;53.162;6.788;2024-01-30T08:54:54;18.45;;;13.23;;
55633;SDS011;41504;53.162;6.788;2024-01-30T08:57:20;16.98;;;12.20;;
55633;SDS011;41504;53.162;6.788;2024-01-30T08:59:49;18.75;;;13.00;;
55633;SDS011;41504;53.162;6.788;2024-01-30T09:02:15;18.50;;;13.05;;
55633;SDS011;41504;53.162;6.788;2024-01-30T09:04:43;17.20;;;13.07;;
55633;SDS011;41504;53.162;6.788;2024-01-30T09:07:09;19.90;;;12.77;;
55633;SDS011;41504;53.162;6.788;2024-01-30T09:09:35;16.33;;;12.60;;
55633;SDS011;41504;53.162;6.788;2024-01-30T09:12:02;17.27;;;12.45;;
55633;SDS011;41504;53.162;6.788;2024-01-30T09:14:32;18.65;;;12.40;;
55633;SDS011;41504;53.162;6.788;2024-01-30T09:16:57;16.83;;;12.38;;
55633;SDS011;41504;53.162;6.788;2024-01-30T09:19:23;19.40;;;12.32;;
55633;SDS011;41504;53.162;6.788;2024-01-30T09:21:52;14.90;;;11.90;;
55633;SDS011;41504;53.162;6.788;2024-01-30T09:24:17;17.85;;;12.05;;
55633;SDS011;41504;53.162;6.788;2024-01-30T09:26:43;15.50;;;12.07;;
55633;SDS011;41504;53.162;6.788;2024-01-30T09:29:09;14.73;;;11.75;;
55633;SDS011;41504;53.162;6.788;2024-01-30T09:31:35;16.52;;;12.30;;
55633;SDS011;41504;53.162;6.788;2024-01-30T09:34:01;15.32;;;12.13;;
55633;SDS011;41504;53.162;6.788;2024-01-30T09:36:26;16.38;;;12.00;;
55633;SDS011;41504;53.162;6.788;2024-01-30T09:38:52;17.30;;;12.30;;
55633;SDS011;41504;53.162;6.788;2024-01-30T09:41:18;16.92;;;11.65;;
55633;SDS011;41504;53.162;6.788;2024-01-30T09:43:47;17.17;;;11.27;;
55633;SDS011;41504;53.162;6.788;2024-01-30T09:46:14;21.08;;;11.85;;
55633;SDS011;41504;53.162;6.788;2024-01-30T09:48:47;16.17;;;11.27;;
55633;SDS011;41504;53.162;6.788;2024-01-30T09:51:16;16.77;;;11.48;;
55633;SDS011;41504;53.162;6.788;2024-01-30T09:53:43;17.00;;;12.15;;
55633;SDS011;41504;53.162;6.788;2024-01-30T09:56:09;16.00;;;11.07;;
55633;SDS011;41504;53.162;6.788;2024-01-30T09:58:39;19.13;;;11.75;;
55633;SDS011;41504;53.162;6.788;2024-01-30T10:01:05;16.80;;;11.88;;
55633;SDS011;41504;53.162;6.788;2024-01-30T10:03:31;16.75;;;11.40;;
55633;SDS011;41504;53.162;6.788;2024-01-30T10:05:57;15.48;;;11.02;;
55633;SDS011;41504;53.162;6.788;2024-01-30T10:08:26;16.40;;;11.48;;
55633;SDS011;41504;53.162;6.788;2024-01-30T10:10:52;17.13;;;11.48;;
55633;SDS011;41504;53.162;6.788;2024-01-30T10:13:18;17.38;;;10.82;;
55633;SDS011;41504;53.162;6.788;2024-01-30T10:15:44;17.45;;;11.40;;
55633;SDS011;41504;53.162;6.788;2024-01-30T10:18:10;14.45;;;10.35;;
55633;SDS011;41504;53.162;6.788;2024-01-30T10:20:36;17.17;;;11.38;;
55633;SDS011;41504;53.162;6.788;2024-01-30T10:23:02;17.27;;;11.63;;
55633;SDS011;41504;53.162;6.788;2024-01-30T10:25:31;16.00;;;10.90;;
55633;SDS011;41504;53.162;6.788;2024-01-30T10:27:58;14.73;;;10.48;;
55633;SDS011;41504;53.162;6.788;2024-01-30T10:30:27;16.20;;;10.63;;
55633;SDS011;41504;53.162;6.788;2024-01-30T10:32:53;18.02;;;11.27;;
55633;SDS011;41504;53.162;6.788;2024-01-30T10:35:22;18.38;;;11.10;;
55633;SDS011;41504;53.162;6.788;2024-01-30T10:37:51;17.50;;;11.47;;
55633;SDS011;41504;53.162;6.788;2024-01-30T10:40:18;16.40;;;10.70;;
55633;SDS011;41504;53.162;6.788;2024-01-30T10:42:53;17.30;;;11.18;;
55633;SDS011;41504;53.162;6.788;2024-01-30T10:45:20;18.77;;;11.82;;
55633;SDS011;41504;53.162;6.788;2024-01-30T10:47:49;18.00;;;11.27;;
55633;SDS011;41504;53.162;6.788;2024-01-30T10:50:15;15.98;;;11.60;;
55633;SDS011;41504;53.162;6.788;2024-01-30T10:52:41;16.73;;;11.77;;
55633;SDS011;41504;53.162;6.788;2024-01-30T10:55:10;17.98;;;11.73;;
55633;SDS011;41504;53.162;6.788;2024-01-30T10:57:39;19.60;;;11.85;;
55633;SDS011;41504;53.162;6.788;2024-01-30T11:00:11;16.23;;;11.50;;
55633;SDS011;41504;53.162;6.788;2024-01-30T11:02:44;17.73;;;11.50;;
55633;SDS011;41504;53.162;6.788;2024-01-30T11:05:14;17.38;;;11.85;;
55633;SDS011;41504;53.162;6.788;2024-01-30T11:07:41;17.90;;;11.80;;
55633;SDS011;41504;53.162;6.788;2024-01-30T11:10:06;17.33;;;12.27;;
55633;SDS011;41504;53.162;6.788;2024-01-30T11:12:37;20.42;;;11.32;;
55633;SDS011;41504;53.162;6.788;2024-01-30T11:15:15;18.95;;;12.10;;
55633;SDS011;41504;53.162;6.788;2024-01-30T11:17:49;16.85;;;11.57;;
55633;SDS011;41504;53.162;6.788;2024-01-30T11:20:29;17.98;;;11.88;;
55633;SDS011;41504;53.162;6.788;2024-01-30T11:23:01;18.27;;;11.98;;
55633;SDS011;41504;53.162;6.788;2024-01-30T11:25:31;15.45;;;12.02;;
55633;SDS011;41504;53.162;6.788;2024-01-30T11:27:57;17.25;;;12.07;;
55633;SDS011;41504;53.162;6.788;2024-01-30T11:30:27;18.27;;;11.27;;
55633;SDS011;41504;53.162;6.788;2024-01-30T11:35:37;18.70;;;11.85;;
55633;SDS011;41504;53.162;6.788;2024-01-30T11:38:05;19.90;;;12.27;;
55633;SDS011;41504;53.162;6.788;2024-01-30T11:40:32;18.83;;;11.25;;
55633;SDS011;41504;53.162;6.788;2024-01-30T11:43:00;15.95;;;11.15;;
55633;SDS011;41504;53.162;6.788;2024-01-30T11:45:30;17.55;;;12.35;;
55633;SDS011;41504;53.162;6.788;2024-01-30T11:47:56;18.95;;;12.20;;
55633;SDS011;41504;53.162;6.788;2024-01-30T11:50:23;16.98;;;12.38;;
55633;SDS011;41504;53.162;6.788;2024-01-30T11:52:50;17.45;;;11.95;;
55633;SDS011;41504;53.162;6.788;2024-01-30T11:55:15;17.65;;;12.27;;
55633;SDS011;41504;53.162;6.788;2024-01-30T11:57:44;18.17;;;12.15;;
55633;SDS011;41504;53.162;6.788;2024-01-30T12:00:14;18.95;;;12.13;;
55633;SDS011;41504;53.162;6.788;2024-01-30T12:02:41;20.95;;;11.18;;
55633;SDS011;41504;53.162;6.788;2024-01-30T12:05:13;18.48;;;9.63;;
55633;SDS011;41504;53.162;6.788;2024-01-30T12:07:39;19.05;;;9.45;;
55633;SDS011;41504;53.162;6.788;2024-01-30T12:10:05;17.50;;;8.75;;
55633;SDS011;41504;53.162;6.788;2024-01-30T12:12:32;15.90;;;7.97;;
55633;SDS011;41504;53.162;6.788;2024-01-30T12:14:58;15.70;;;7.80;;
55633;SDS011;41504;53.162;6.788;2024-01-30T12:20:06;13.80;;;6.85;;
55633;SDS011;41504;53.162;6.788;2024-01-30T12:22:37;11.38;;;5.55;;
55633;SDS011;41504;53.162;6.788;2024-01-30T12:25:05;10.77;;;4.90;;
55633;SDS011;41504;53.162;6.788;2024-01-30T12:27:36;14.10;;;6.60;;
55633;SDS011;41504;53.162;6.788;2024-01-30T12:30:07;12.90;;;5.55;;
55633;SDS011;41504;53.162;6.788;2024-01-30T12:32:34;10.88;;;4.65;;
55633;SDS011;41504;53.162;6.788;2024-01-30T12:35:07;10.40;;;4.72;;
55633;SDS011;41504;53.162;6.788;2024-01-30T12:37:34;11.38;;;5.70;;
55633;SDS011;41504;53.162;6.788;2024-01-30T12:40:00;9.23;;;4.43;;
55633;SDS011;41504;53.162;6.788;2024-01-30T12:42:27;11.68;;;5.20;;
55633;SDS011;41504;53.162;6.788;2024-01-30T12:44:53;10.93;;;4.35;;
55633;SDS011;41504;53.162;6.788;2024-01-30T12:47:21;8.85;;;3.88;;
55633;SDS011;41504;53.162;6.788;2024-01-30T12:49:47;12.07;;;4.72;;
55633;SDS011;41504;53.162;6.788;2024-01-30T12:52:16;8.85;;;3.80;;
55633;SDS011;41504;53.162;6.788;2024-01-30T12:54:42;11.00;;;4.80;;
55633;SDS011;41504;53.162;6.788;2024-01-30T12:57:08;11.40;;;3.95;;
55633;SDS011;41504;53.162;6.788;2024-01-30T12:59:33;10.48;;;3.67;;
55633;SDS011;41504;53.162;6.788;2024-01-30T13:02:00;8.88;;;3.20;;
55633;SDS011;41504;53.162;6.788;2024-01-30T13:04:27;9.52;;;3.22;;
55633;SDS011;41504;53.162;6.788;2024-01-30T13:06:53;9.27;;;2.50;;
55633;SDS011;41504;53.162;6.788;2024-01-30T13:09:18;3.75;;;1.63;;
55633;SDS011;41504;53.162;6.788;2024-01-30T13:11:44;5.25;;;1.98;;
55633;SDS011;41504;53.162;6.788;2024-01-30T13:14:13;5.00;;;2.03;;
55633;SDS011;41504;53.162;6.788;2024-01-30T13:16:39;7.13;;;2.28;;
55633;SDS011;41504;53.162;6.788;2024-01-30T13:19:05;5.18;;;2.35;;
55633;SDS011;41504;53.162;6.788;2024-01-30T13:21:31;4.97;;;1.58;;
55633;SDS011;41504;53.162;6.788;2024-01-30T13:23:56;3.45;;;1.35;;
55633;SDS011;41504;53.162;6.788;2024-01-30T13:26:22;5.97;;;1.50;;
55633;SDS011;41504;53.162;6.788;2024-01-30T13:28:48;4.40;;;1.40;;
55633;SDS011;41504;53.162;6.788;2024-01-30T13:31:14;2.45;;;1.10;;
55633;SDS011;41504;53.162;6.788;2024-01-30T13:33:40;2.83;;;1.13;;
55633;SDS011;41504;53.162;6.788;2024-01-30T13:36:10;2.80;;;1.20;;
55633;SDS011;41504;53.162;6.788;2024-01-30T13:38:36;3.55;;;1.00;;
55633;SDS011;41504;53.162;6.788;2024-01-30T13:41:03;2.30;;;1.08;;
55633;SDS011;41504;53.162;6.788;2024-01-30T13:43:28;3.05;;;1.10;;
55633;SDS011;41504;53.162;6.788;2024-01-30T13:45:57;2.38;;;1.20;;
55633;SDS011;41504;53.162;6.788;2024-01-30T13:48:24;3.33;;;1.00;;
55633;SDS011;41504;53.162;6.788;2024-01-30T13:50:53;2.17;;;1.00;;
55633;SDS011;41504;53.162;6.788;2024-01-30T13:53:22;3.85;;;1.13;;
55633;SDS011;41504;53.162;6.788;2024-01-30T13:55:48;2.38;;;1.10;;
55633;SDS011;41504;53.162;6.788;2024-01-30T13:58:20;2.75;;;1.20;;
55633;SDS011;41504;53.162;6.788;2024-01-30T14:00:46;3.43;;;1.17;;
55633;SDS011;41504;53.162;6.788;2024-01-30T14:03:12;2.15;;;1.13;;
55633;SDS011;41504;53.162;6.788;2024-01-30T14:05:39;2.80;;;1.08;;
55633;SDS011;41504;53.162;6.788;2024-01-30T14:08:05;3.58;;;1.08;;
55633;SDS011;41504;53.162;6.788;2024-01-30T14:10:32;2.63;;;1.00;;
55633;SDS011;41504;53.162;6.788;2024-01-30T14:12:58;3.30;;;1.20;;
55633;SDS011;41504;53.162;6.788;2024-01-30T14:15:27;2.08;;;1.02;;
55633;SDS011;41504;53.162;6.788;2024-01-30T14:17:52;3.95;;;1.20;;
55633;SDS011;41504;53.162;6.788;2024-01-30T14:20:18;3.58;;;1.17;;
55633;SDS011;41504;53.162;6.788;2024-01-30T14:22:44;2.33;;;1.10;;
55633;SDS011;41504;53.162;6.788;2024-01-30T14:25:10;4.97;;;1.40;;
55633;SDS011;41504;53.162;6.788;2024-01-30T14:27:37;4.88;;;1.20;;